createdAt,value
2019-01-05T00:02:55.982Z,1.50
2019-01-05T00:05:44.529Z,1.40
2019-01-05T00:08:32.870Z,1.30
2019-01-05T00:11:21.364Z,1.30
2019-01-05T00:14:23.257Z,1.13
2019-01-05T00:17:21.677Z,1.30
2019-01-05T00:20:11.360Z,1.13
2019-01-05T00:22:58.327Z,1.10
2019-01-05T00:26:02.557Z,1.00
2019-01-05T00:28:50.872Z,1.17
2019-01-05T00:31:49.337Z,1.23
2019-01-05T00:34:36.273Z,1.00
2019-01-05T00:37:24.202Z,0.80
2019-01-05T00:40:16.931Z,1.00
2019-01-05T00:43:00.313Z,0.90
2019-01-05T00:45:51.977Z,0.80
2019-01-05T00:48:39.333Z,0.90
2019-01-05T00:51:46.517Z,1.00
2019-01-05T00:54:51.997Z,1.00
2019-01-05T00:57:40.485Z,1.20
2019-01-05T01:00:35.041Z,0.93
2019-01-05T01:03:22.845Z,0.90
2019-01-05T01:06:11.389Z,0.77
2019-01-05T01:09:08.833Z,1.20
2019-01-05T01:12:12.613Z,1.20
2019-01-05T01:14:59.348Z,0.97
2019-01-05T01:17:46.372Z,0.90
2019-01-05T01:20:34.458Z,1.10
2019-01-05T01:23:21.289Z,0.97
2019-01-05T01:26:22.297Z,0.88
2019-01-05T01:29:10.300Z,0.83
2019-01-05T01:31:58.778Z,1.00
2019-01-05T01:34:47.010Z,1.13
2019-01-05T01:37:35.556Z,1.00
2019-01-05T01:40:26.344Z,1.00
2019-01-05T01:43:27.271Z,0.97
2019-01-05T01:46:14.252Z,1.10
2019-01-05T01:49:00.321Z,0.90
2019-01-05T01:52:03.857Z,0.90
2019-01-05T01:55:04.910Z,0.90
2019-01-05T01:57:54.537Z,0.93
2019-01-05T02:00:41.188Z,1.10
2019-01-05T02:03:31.053Z,1.20
2019-01-05T02:06:21.093Z,0.97
2019-01-05T02:09:13.200Z,0.77
2019-01-05T02:12:06.891Z,1.10
2019-01-05T02:15:10.729Z,0.73
2019-01-05T02:18:02.217Z,1.00
2019-01-05T02:24:24.456Z,0.90
2019-01-05T02:27:44.257Z,0.70
2019-01-05T02:30:43.706Z,1.27
2019-01-05T02:33:52.865Z,1.10
2019-01-05T02:36:50.210Z,0.97
2019-01-05T02:39:47.930Z,0.73
2019-01-05T02:42:42.357Z,0.80
2019-01-05T02:46:07.624Z,0.93
2019-01-05T02:49:13.477Z,1.00
2019-01-05T02:52:10.150Z,0.80
2019-01-05T02:55:41.807Z,1.00
2019-01-05T02:58:50.842Z,1.00
2019-01-05T03:02:00.449Z,0.83
2019-01-05T03:05:13.659Z,1.20
2019-01-05T03:08:49.777Z,0.97
2019-01-05T03:12:09.017Z,1.00
2019-01-05T03:15:08.845Z,0.97
2019-01-05T03:18:28.478Z,1.10
2019-01-05T03:21:41.223Z,0.80
2019-01-05T03:24:47.515Z,0.90
2019-01-05T03:28:08.425Z,0.90
2019-01-05T03:31:16.630Z,0.87
2019-01-05T03:34:38.654Z,0.80
2019-01-05T03:37:58.303Z,1.10
2019-01-05T03:41:03.366Z,1.10
2019-01-05T03:44:32.126Z,0.80
2019-01-05T03:47:40.324Z,1.03
2019-01-05T03:50:49.338Z,1.10
2019-01-05T03:54:06.118Z,0.85
2019-01-05T03:57:13.950Z,1.07
2019-01-05T04:00:19.839Z,1.13
2019-01-05T04:03:41.692Z,0.90
2019-01-05T04:06:43.437Z,0.90
2019-01-05T04:09:56.632Z,0.80
2019-01-05T04:12:53.266Z,0.90
2019-01-05T04:15:51.081Z,0.90
2019-01-05T04:18:56.958Z,1.10
2019-01-05T04:22:13.034Z,0.93
2019-01-05T04:25:34.556Z,1.10
2019-01-05T04:29:02.721Z,1.13
2019-01-05T04:32:30.777Z,1.10
2019-01-05T04:35:42.986Z,1.35
2019-01-05T04:39:01.656Z,1.60
2019-01-05T04:42:00.033Z,1.60
2019-01-05T04:45:17.461Z,1.70
2019-01-05T04:48:58.188Z,1.60
2019-01-05T04:51:56.476Z,1.30
2019-01-05T04:54:49.576Z,1.40
2019-01-05T04:57:52.494Z,1.10
2019-01-05T05:01:01.714Z,1.60
2019-01-05T05:04:26.672Z,1.33
2019-01-05T05:08:00.157Z,1.20
2019-01-05T05:11:15.764Z,1.00
2019-01-05T05:14:29.218Z,1.00
2019-01-05T05:17:51.609Z,1.40
2019-01-05T05:20:53.565Z,1.02
2019-01-05T05:24:03.003Z,1.00
2019-01-05T05:27:08.376Z,1.17
2019-01-05T05:30:26.631Z,1.23
2019-01-05T05:33:31.845Z,1.60
2019-01-05T05:36:38.709Z,0.90
2019-01-05T05:39:44.238Z,1.27
2019-01-05T05:42:50.954Z,1.23
2019-01-05T05:45:56.028Z,1.40
2019-01-05T05:49:14.626Z,1.40
2019-01-05T05:52:19.524Z,1.20
2019-01-05T05:55:20.390Z,0.90
2019-01-05T05:58:44.881Z,1.10
2019-01-05T06:01:58.825Z,1.27
2019-01-05T06:05:27.017Z,0.80
2019-01-05T06:08:42.165Z,1.80
2019-01-05T06:11:53.016Z,1.40
2019-01-05T06:15:00.231Z,1.77
2019-01-05T06:18:24.969Z,1.60
2019-01-05T06:21:30.729Z,1.93
2019-01-05T06:24:49.080Z,2.00
2019-01-05T06:27:58.969Z,2.47
2019-01-05T06:31:04.781Z,2.20
2019-01-05T06:34:19.290Z,2.02
2019-01-05T06:37:42.601Z,1.40
2019-01-05T06:40:57.089Z,1.40
2019-01-05T06:44:22.400Z,1.67
2019-01-05T06:47:29.028Z,1.27
2019-01-05T06:50:50.915Z,1.07
2019-01-05T06:54:08.701Z,1.27
2019-01-05T06:57:25.736Z,1.20
2019-01-05T07:00:30.689Z,1.00
2019-01-05T07:03:54.034Z,2.43
2019-01-05T07:06:53.317Z,1.40
2019-01-05T07:10:07.401Z,1.00
2019-01-05T07:13:08.805Z,1.40
2019-01-05T07:16:18.188Z,1.57
2019-01-05T07:19:46.542Z,1.30
2019-01-05T07:22:52.090Z,1.07
2019-01-05T07:25:52.758Z,0.93
2019-01-05T07:29:17.433Z,1.10
2019-01-05T07:32:36.697Z,1.20
2019-01-05T07:36:01.832Z,1.00
2019-01-05T07:39:12.040Z,1.03
2019-01-05T07:42:14.949Z,1.00
2019-01-05T07:45:32.453Z,1.15
2019-01-05T07:48:39.634Z,1.30
2019-01-05T07:52:08.601Z,1.20
2019-01-05T07:55:17.329Z,1.00
2019-01-05T07:58:19.497Z,1.20
2019-01-05T08:01:42.304Z,1.20
2019-01-05T08:04:51.096Z,0.90
2019-01-05T08:08:15.457Z,1.30
2019-01-05T08:11:46.693Z,1.17
2019-01-05T08:14:55.429Z,0.90
2019-01-05T08:18:04.465Z,1.13
2019-01-05T08:21:28.964Z,1.73
2019-01-05T08:24:34.049Z,1.10
2019-01-05T08:28:14.603Z,0.95
2019-01-05T08:31:42.705Z,1.40
2019-01-05T08:34:58.901Z,1.10
2019-01-05T08:38:23.028Z,1.10
2019-01-05T08:41:48.157Z,1.10
2019-01-05T08:45:16.192Z,1.40
2019-01-05T08:48:38.233Z,1.10
2019-01-05T08:51:37.203Z,1.33
2019-01-05T08:54:57.513Z,1.20
2019-01-05T08:58:26.140Z,1.00
2019-01-05T09:01:45.724Z,1.10
2019-01-05T09:05:10.026Z,1.30
2019-01-05T09:08:12.909Z,1.00
2019-01-05T09:11:20.345Z,1.20
2019-01-05T09:14:37.863Z,1.20
2019-01-05T09:17:42.692Z,1.20
2019-01-05T09:20:43.076Z,1.37
2019-01-05T09:24:00.605Z,1.20
2019-01-05T09:27:20.702Z,1.60
2019-01-05T09:30:24.076Z,1.23
2019-01-05T09:33:27.077Z,1.13
2019-01-05T09:36:33.401Z,1.00
2019-01-05T09:39:42.329Z,1.20
2019-01-05T09:42:48.185Z,1.17
2019-01-05T09:45:53.005Z,1.20
2019-01-05T09:49:07.362Z,0.90
2019-01-05T09:52:38.430Z,1.10
2019-01-05T09:55:43.485Z,1.30
2019-01-05T09:59:06.616Z,1.20
2019-01-05T10:02:25.696Z,1.37
2019-01-05T10:05:34.153Z,0.80
2019-01-05T10:08:27.220Z,1.13
2019-01-05T10:11:31.589Z,1.00
2019-01-05T10:15:03.089Z,1.10
2019-01-05T10:18:14.065Z,1.10
2019-01-05T10:21:40.898Z,1.03
2019-01-05T10:24:50.189Z,1.10
2019-01-05T10:28:04.977Z,1.03
2019-01-05T10:31:14.125Z,0.97
2019-01-05T10:34:32.428Z,1.10
2019-01-05T10:37:42.408Z,0.77
2019-01-05T10:41:04.624Z,0.97
2019-01-05T10:44:25.710Z,1.00
2019-01-05T10:47:34.917Z,0.80
2019-01-05T10:50:54.365Z,1.30
2019-01-05T10:53:59.656Z,0.70
2019-01-05T10:57:09.843Z,1.07
2019-01-05T11:00:20.645Z,0.90
2019-01-05T11:03:30.334Z,1.10
2019-01-05T11:06:21.209Z,1.07
2019-01-05T11:09:17.357Z,1.07
2019-01-05T11:12:42.682Z,1.03
2019-01-05T11:15:55.000Z,1.53
2019-01-05T11:19:03.877Z,1.20
2019-01-05T11:22:01.984Z,1.33
2019-01-05T11:25:13.973Z,1.30
2019-01-05T11:28:37.173Z,1.10
2019-01-05T11:32:02.848Z,1.25
2019-01-05T11:35:09.925Z,1.70
2019-01-05T11:38:18.697Z,1.20
2019-01-05T11:41:38.245Z,1.13
2019-01-05T11:48:10.202Z,1.17
2019-01-05T11:51:19.479Z,1.35
2019-01-05T11:54:39.126Z,1.30
2019-01-05T11:58:01.899Z,1.20
2019-01-05T12:01:16.717Z,1.40
2019-01-05T12:04:28.713Z,1.62
2019-01-05T12:07:54.314Z,1.27
2019-01-05T12:11:01.938Z,1.10
2019-01-05T12:14:07.662Z,1.20
2019-01-05T12:17:20.729Z,1.30
2019-01-05T12:20:38.107Z,1.40
2019-01-05T12:23:42.012Z,1.33
2019-01-05T12:26:54.477Z,1.27
2019-01-05T12:30:12.487Z,1.33
2019-01-05T12:33:18.765Z,1.20
2019-01-05T12:36:24.451Z,1.10
2019-01-05T12:39:37.689Z,1.25
2019-01-05T12:42:59.421Z,1.20
2019-01-05T12:46:09.665Z,1.00
2019-01-05T12:49:14.914Z,1.20
2019-01-05T12:52:29.940Z,0.90
2019-01-05T12:55:43.645Z,1.43
2019-01-05T12:58:57.685Z,1.20
2019-01-05T13:01:52.108Z,1.07
2019-01-05T13:05:04.739Z,1.27
2019-01-05T13:08:18.389Z,1.53
2019-01-05T13:11:19.985Z,1.63
2019-01-05T13:14:46.892Z,1.60
2019-01-05T13:17:47.941Z,2.12
2019-01-05T13:21:08.522Z,1.10
2019-01-05T13:24:21.966Z,1.40
2019-01-05T13:27:38.286Z,1.50
2019-01-05T13:30:40.967Z,1.70
2019-01-05T13:33:45.737Z,1.60
2019-01-05T13:37:07.159Z,1.50
2019-01-05T13:40:18.649Z,1.50
2019-01-05T13:43:23.258Z,1.53
2019-01-05T13:46:17.885Z,1.40
2019-01-05T13:49:21.797Z,1.80
2019-01-05T13:52:30.677Z,2.10
2019-01-05T13:55:17.881Z,1.62
2019-01-05T13:58:04.686Z,1.90
2019-01-05T14:01:02.329Z,1.80
2019-01-05T14:04:00.085Z,2.20
2019-01-05T14:06:54.693Z,1.77
2019-01-05T14:09:37.500Z,1.83
2019-01-05T14:12:31.908Z,1.77
2019-01-05T14:15:18.773Z,1.30
2019-01-05T14:18:07.185Z,1.47
2019-01-05T14:20:54.678Z,1.73
2019-01-05T14:23:46.017Z,1.23
2019-01-05T14:26:40.070Z,1.40
2019-01-05T14:29:33.401Z,1.63
2019-01-05T14:32:33.905Z,1.57
2019-01-05T14:35:19.088Z,1.90
2019-01-05T14:38:08.106Z,1.50
2019-01-05T14:41:02.668Z,1.13
2019-01-05T14:43:49.705Z,1.47
2019-01-05T14:46:41.013Z,1.40
2019-01-05T14:49:28.705Z,1.60
2019-01-05T14:52:23.389Z,1.40
2019-01-05T14:55:11.801Z,1.30
2019-01-05T14:57:59.935Z,1.03
2019-01-05T15:01:04.428Z,1.20
2019-01-05T15:04:07.893Z,1.70
2019-01-05T15:06:59.233Z,1.50
2019-01-05T15:09:47.589Z,1.60
2019-01-05T15:12:44.752Z,2.03
2019-01-05T15:15:33.817Z,1.70
2019-01-05T15:18:20.808Z,2.10
2019-01-05T15:21:09.844Z,1.80
2019-01-05T15:23:47.989Z,1.87
2019-01-05T15:26:48.277Z,2.20
2019-01-05T15:29:36.097Z,2.13
2019-01-05T15:32:36.362Z,2.70
2019-01-05T15:35:14.725Z,2.50
2019-01-05T15:38:06.186Z,2.22
2019-01-05T15:40:58.068Z,2.07
2019-01-05T15:43:53.265Z,2.47
2019-01-05T15:46:42.688Z,2.37
2019-01-05T15:49:29.336Z,2.90
2019-01-05T15:52:20.963Z,2.50
2019-01-05T15:55:15.655Z,2.30
2019-01-05T15:58:04.304Z,2.63
2019-01-05T16:01:08.636Z,2.20
2019-01-05T16:03:57.117Z,2.43
2019-01-05T16:06:43.660Z,2.60
2019-01-05T16:09:51.377Z,2.70
2019-01-05T16:12:55.114Z,2.72
2019-01-05T16:15:49.232Z,2.50
2019-01-05T16:18:37.113Z,2.80
2019-01-05T16:21:29.601Z,2.63
2019-01-05T16:24:20.953Z,2.77
2019-01-05T16:27:15.632Z,2.60
2019-01-05T16:30:03.270Z,2.60
2019-01-05T16:32:57.720Z,2.70
2019-01-05T16:35:45.921Z,2.47
2019-01-05T16:38:33.110Z,2.33
2019-01-05T16:41:20.246Z,2.80
2019-01-05T16:44:07.353Z,2.90
2019-01-05T16:46:54.805Z,2.90
2019-01-05T16:49:49.813Z,2.80
2019-01-05T16:52:53.577Z,2.30
2019-01-05T16:55:41.637Z,3.20
2019-01-05T16:58:28.256Z,2.83
2019-01-05T17:01:22.634Z,2.60
2019-01-05T17:04:19.016Z,2.72
2019-01-05T17:07:04.353Z,3.10
2019-01-05T17:09:50.364Z,3.60
2019-01-05T17:12:45.225Z,3.77
2019-01-05T17:15:32.004Z,4.00
2019-01-05T17:18:19.833Z,3.87
2019-01-05T17:21:06.920Z,3.90
2019-01-05T17:24:04.698Z,5.10
2019-01-05T17:27:11.085Z,4.45
2019-01-05T17:30:09.011Z,4.83
2019-01-05T17:33:00.233Z,4.57
2019-01-05T17:35:55.392Z,4.53
2019-01-05T17:38:48.235Z,4.77
2019-01-05T17:41:35.581Z,7.13
2019-01-05T17:44:27.058Z,4.30
2019-01-05T17:47:14.221Z,4.73
2019-01-05T17:50:17.243Z,7.58
2019-01-05T17:53:17.511Z,4.17
2019-01-05T17:56:12.624Z,4.17
2019-01-05T17:59:03.999Z,12.07
2019-01-05T18:02:01.589Z,5.33
2019-01-05T18:04:59.558Z,4.43
2019-01-05T18:07:37.132Z,5.63
2019-01-05T18:10:22.262Z,4.30
2019-01-05T18:13:10.580Z,4.40
2019-01-05T18:15:57.929Z,4.10
2019-01-05T18:18:59.207Z,7.77
2019-01-05T18:21:53.529Z,4.53
2019-01-05T18:24:56.860Z,7.45
2019-01-05T18:27:43.686Z,8.40
2019-01-05T18:30:31.366Z,8.10
2019-01-05T18:33:28.534Z,4.13
2019-01-05T18:36:25.390Z,6.27
2019-01-05T18:39:12.181Z,7.40
2019-01-05T18:41:56.324Z,10.00
2019-01-05T18:44:37.910Z,5.15
2019-01-05T18:47:24.807Z,4.13
2019-01-05T18:50:22.943Z,3.57
2019-01-05T18:53:06.233Z,9.13
2019-01-05T18:56:00.612Z,5.20
2019-01-05T18:58:55.804Z,5.47
2019-01-05T19:01:44.959Z,5.53
2019-01-05T19:04:32.258Z,3.23
2019-01-05T19:07:33.433Z,3.93
2019-01-05T19:10:20.799Z,3.03
2019-01-05T19:13:13.395Z,3.80
2019-01-05T19:15:57.652Z,3.70
2019-01-05T19:18:55.499Z,3.90
2019-01-05T19:21:56.969Z,3.30
2019-01-05T19:24:50.115Z,3.97
2019-01-05T19:27:47.534Z,4.57
2019-01-05T19:30:35.314Z,5.13
2019-01-05T19:33:41.601Z,4.80
2019-01-05T19:36:28.653Z,4.53
2019-01-05T19:39:23.753Z,4.07
2019-01-05T19:42:11.323Z,4.40
2019-01-05T19:44:58.649Z,4.30
2019-01-05T19:47:46.061Z,4.80
2019-01-05T19:50:50.033Z,4.77
2019-01-05T19:53:53.978Z,5.97
2019-01-05T19:56:41.068Z,5.07
2019-01-05T19:59:29.445Z,6.60
2019-01-05T20:02:23.637Z,3.50
2019-01-05T20:05:14.934Z,3.23
2019-01-05T20:08:02.298Z,4.10
2019-01-05T20:10:49.734Z,3.60
2019-01-05T20:13:37.014Z,3.05
2019-01-05T20:16:19.959Z,2.77
2019-01-05T20:19:11.505Z,4.27
2019-01-05T20:22:00.452Z,3.70
2019-01-05T20:24:48.229Z,3.77
2019-01-05T20:27:40.281Z,3.50
2019-01-05T20:30:27.629Z,3.13
2019-01-05T20:33:15.161Z,6.93
2019-01-05T20:36:03.323Z,3.73
2019-01-05T20:38:58.625Z,6.57
2019-01-05T20:41:47.357Z,4.42
2019-01-05T20:44:34.984Z,4.40
2019-01-05T20:47:26.341Z,4.70
2019-01-05T20:50:13.848Z,4.57
2019-01-05T20:53:02.393Z,7.47
2019-01-05T20:55:56.510Z,6.00
2019-01-05T20:58:45.737Z,5.73
2019-01-05T21:01:29.435Z,5.50
2019-01-05T21:04:24.710Z,5.80
2019-01-05T21:07:19.865Z,6.00
2019-01-05T21:10:03.470Z,7.37
2019-01-05T21:12:55.673Z,6.50
2019-01-05T21:15:42.982Z,6.50
2019-01-05T21:18:29.825Z,6.17
2019-01-05T21:21:14.286Z,6.80
2019-01-05T21:23:58.241Z,6.43
2019-01-05T21:26:45.498Z,6.20
2019-01-05T21:29:33.917Z,9.87
2019-01-05T21:32:35.714Z,11.40
2019-01-05T21:35:23.197Z,6.57
2019-01-05T21:38:27.269Z,5.37
2019-01-05T21:41:16.397Z,5.57
2019-01-05T21:44:08.804Z,5.90
2019-01-05T21:46:56.505Z,5.03
2019-01-05T21:50:03.573Z,5.10
2019-01-05T21:52:51.000Z,7.00
2019-01-05T21:55:39.372Z,9.43
2019-01-05T21:58:23.405Z,7.90
2019-01-05T22:01:11.909Z,7.53
2019-01-05T22:04:03.627Z,5.03
2019-01-05T22:06:56.881Z,4.17
2019-01-05T22:09:47.927Z,4.57
2019-01-05T22:12:34.585Z,10.67
2019-01-05T22:15:25.873Z,7.80
2019-01-05T22:18:20.084Z,5.83
2019-01-05T22:21:02.393Z,5.30
2019-01-05T22:24:01.752Z,5.17
2019-01-05T22:26:53.385Z,5.50
2019-01-05T22:29:43.568Z,7.58
2019-01-05T22:32:44.601Z,5.90
2019-01-05T22:35:36.111Z,5.77
2019-01-05T22:38:17.923Z,4.90
2019-01-05T22:41:18.003Z,8.17
2019-01-05T22:44:06.969Z,5.60
2019-01-05T22:46:56.497Z,6.60
2019-01-05T22:49:56.886Z,6.72
2019-01-05T22:53:00.101Z,6.80
2019-01-05T22:55:47.811Z,5.17
2019-01-05T22:58:42.222Z,4.80
2019-01-05T23:01:30.188Z,5.43
2019-01-05T23:04:34.390Z,5.60
2019-01-05T23:07:37.993Z,5.03
2019-01-05T23:10:27.945Z,5.55
2019-01-05T23:13:16.853Z,6.05
2019-01-05T23:16:03.873Z,7.70
2019-01-05T23:18:49.512Z,7.37
2019-01-05T23:21:37.609Z,8.18
2019-01-05T23:24:25.067Z,8.23
2019-01-05T23:27:07.173Z,6.97
2019-01-05T23:29:54.909Z,7.43
2019-01-05T23:32:45.777Z,6.27
2019-01-05T23:35:49.164Z,5.77
2019-01-05T23:38:36.564Z,5.90
2019-01-05T23:41:24.357Z,5.63
2019-01-05T23:44:12.117Z,6.30
2019-01-05T23:46:55.772Z,5.63
2019-01-05T23:49:42.713Z,6.27
2019-01-05T23:52:30.206Z,7.50
2019-01-05T23:55:16.734Z,5.57
2019-01-05T23:58:03.669Z,7.00
